Segui, Argentina
Current Conditions -  °F | °C
As of 5:00 AM on Friday 19 Dec 2014 (Local Time) from SAAR Reporting Station
Clear Clear  
Wind Chill: 19°   Ceiling: Unl
Heat Index: 19°   Visibility: 6mi
Dew Point: 16°   Wind: 6mph
Humidity: 83%   Direction: 340°NNW
Pressure: 29.71"   Gusts: NA
Location:  31.95°S, 60.13°W
Report Text: SAAR 190800Z 34005KT CAVOK 19/16 Q1006
Loading
Personal Weather Stations






























Interactive Weather Map New forecast layout! Learn more

10-Day Weather Forecast

Advertisements
Track Severe Weather on mobile